Main page
METAR-TAF:

METAR-TAF

Airports :

Khartoum International Airport

Khartoum, Sudan

latitude: 15-36N, longitude: 032-33E, elevation: 382 m

Current weather observation

The report was made 17 minutes ago, at 12:30 UTC
Wind 7 kt from the Northwest
Temperature 39°C
Humidity 9%
Pressure 1007 hPa
Visibility 10 km or more
no clouds below 1500 m and no cumulonimbus

METAR: HSSS 181230Z 31007KT CAVOK 39/01 Q1007 NOSIG

Time: 15:47 (12:47 UTC)

Forecast

The report was made 1 hour and 47 minutes ago, at 11:00 UTC
Forecast valid from 18 at 12 UTC to 19 at 18 UTC
Wind 10 kt from the North/Northwest with gusts up to 20 kt
Visibility 10 km or more
no clouds below 1500 m and no cumulonimbus

TAF: HSSS 181100Z 1812/1918 34010G20KT CAVOK

Weather observations and forecasts of more than 4000 airports (METAR and TAF reports).

The available stations are represented by yellow and red dots on the map.

Hover mouse over dot to see the name of the station.

Then click to see weather observations and forecasts.

To change the map : click on the green buttons with a black cross to zoom in, on the green button with a dash to zoom out, or on the green arrows for adjacent maps.


METAR-TAF: